PWSweather.com
Personal Weather Stations
Station Observations
BOOMEPH
Weather On The Hill Or Not, Ephrata, PA 17522

Weather On The Hill Or NotEphrata, PA 17522

Lat: 40.17243, Lon: -76.180815

Elevation: 597

Station Type: Ambient WS 1080

Latest ConditionsUpdated 1:50:11 AM EDT Thursday, Oct 23, 2014
Currently Today's Max Today's Min Today's Average
Temperature 50.4°F10.2°C 51.8°F11.0°C 50.0°F10.0°C 51.2°F10.7°C
Dew Point 50.4°F10.2°C 50.9°F10.5°C 49.8°F9.9°C 50.2°F10.1°C
Winds 6.9 mph NE11.1 kmh NE 15.9 mph ENE25.6 kmh ENE - 10.1 mph 16.3 kmh
Wind Gusts 17.4 mph28.0 kmh 25.1 mph40.4 kmh - -
Humidity 100% 100% 93% 96%
Pressure 29.75 in1007.5 mb 29.77 in1008.1 mb 29.74 in1007.1 mb -
Hour Temp Dew Point Humidity Winds Wind Gusts Pressure Precip Precip Rate Daily Precip Total
01:50 AM 50.4°F10.2°C 50.4°F10.2°C 100% 6.9 mph NE11.1 kmh NE 17.4 mph28.0 kmh 29.75 in1007.5 mb 0.00 in0.0 mm 0.00 in/hr0.0 mm/hr 0.00 in0.0 mm
01:49 AM 50.5°F10.3°C 50.5°F10.3°C 100% 6.9 mph NE11.1 kmh NE 17.4 mph28.0 kmh 29.74 in1007.1 mb 0.00 in0.0 mm 0.00 in/hr0.0 mm/hr 0.00 in0.0 mm
01:48 AM 50.2°F10.1°C 50.2°F10.1°C 100% 9.8 mph NE15.8 kmh NE 15.2 mph24.5 kmh 29.75 in1007.5 mb 0.00 in0.0 mm 0.00 in/hr0.0 mm/hr 0.00 in0.0 mm
01:47 AM 50.0°F10.0°C 50.0°F10.0°C 100% 6.9 mph NE11.1 kmh NE 14.5 mph23.3 kmh 29.75 in1007.5 mb 0.00 in0.0 mm 0.00 in/hr0.0 mm/hr 0.00 in0.0 mm
01:46 AM 50.0°F10.0°C 50.0°F10.0°C 100% 6.0 mph NE9.7 kmh NE 14.5 mph23.3 kmh 29.74 in1007.1 mb 0.00 in0.0 mm 0.00 in/hr0.0 mm/hr 0.00 in0.0 mm
01:45 AM 50.2°F10.1°C 50.2°F10.1°C 100% 6.9 mph NE11.1 kmh NE 19.0 mph30.6 kmh 29.75 in1007.5 mb 0.00 in0.0 mm 0.00 in/hr0.0 mm/hr 0.00 in0.0 mm
01:44 AM 50.0°F10.0°C 50.0°F10.0°C 100% 6.0 mph NE9.7 kmh NE 19.0 mph30.6 kmh 29.75 in1007.5 mb 0.00 in0.0 mm 0.00 in/hr0.0 mm/hr 0.00 in0.0 mm
01:43 AM 50.2°F10.1°C 50.2°F10.1°C 100% 5.4 mph NE8.7 kmh NE 19.0 mph30.6 kmh 29.74 in1007.1 mb 0.00 in0.0 mm 0.00 in/hr0.0 mm/hr 0.00 in0.0 mm
01:42 AM 50.0°F10.0°C 50.0°F10.0°C 100% 9.2 mph NE14.8 kmh NE 19.0 mph30.6 kmh 29.74 in1007.1 mb 0.00 in0.0 mm 0.00 in/hr0.0 mm/hr 0.00 in0.0 mm
01:41 AM 50.0°F10.0°C 50.0°F10.0°C 100% 7.6 mph NE12.2 kmh NE 19.0 mph30.6 kmh 29.74 in1007.1 mb 0.00 in0.0 mm 0.00 in/hr0.0 mm/hr 0.00 in0.0 mm
01:40 AM 50.0°F10.0°C 50.0°F10.0°C 100% 12.1 mph NE19.5 kmh NE 19.0 mph30.6 kmh 29.74 in1007.1 mb 0.00 in0.0 mm 0.00 in/hr0.0 mm/hr 0.00 in0.0 mm
01:39 AM 50.0°F10.0°C 50.0°F10.0°C 100% 6.0 mph NE9.7 kmh NE 19.0 mph30.6 kmh 29.74 in1007.1 mb 0.00 in0.0 mm 0.00 in/hr0.0 mm/hr 0.00 in0.0 mm
01:38 AM 50.0°F10.0°C 50.0°F10.0°C 100% 6.9 mph NE11.1 kmh NE 19.0 mph30.6 kmh 29.74 in1007.1 mb 0.00 in0.0 mm 0.00 in/hr0.0 mm/hr 0.00 in0.0 mm
01:37 AM 50.2°F10.1°C 50.2°F10.1°C 100% 6.9 mph NE11.1 kmh NE 19.0 mph30.6 kmh 29.75 in1007.5 mb 0.00 in0.0 mm 0.00 in/hr0.0 mm/hr 0.00 in0.0 mm
01:36 AM 50.0°F10.0°C 50.0°F10.0°C 100% 13.0 mph NE20.9 kmh NE 20.6 mph33.2 kmh 29.74 in1007.1 mb 0.00 in0.0 mm 0.00 in/hr0.0 mm/hr 0.00 in0.0 mm
01:35 AM 50.0°F10.0°C 50.0°F10.0°C 100% 8.3 mph NE13.4 kmh NE 20.6 mph33.2 kmh 29.74 in1007.1 mb 0.00 in0.0 mm 0.00 in/hr0.0 mm/hr 0.00 in0.0 mm
01:34 AM 50.2°F10.1°C 50.2°F10.1°C 100% 6.0 mph NE9.7 kmh NE 20.6 mph33.2 kmh 29.74 in1007.1 mb 0.00 in0.0 mm 0.00 in/hr0.0 mm/hr 0.00 in0.0 mm
01:33 AM 50.2°F10.1°C 50.2°F10.1°C 100% 6.0 mph ENE9.7 kmh ENE 20.6 mph33.2 kmh 29.75 in1007.5 mb 0.00 in0.0 mm 0.00 in/hr0.0 mm/hr 0.00 in0.0 mm
01:32 AM 50.4°F10.2°C 50.4°F10.2°C 100% 6.0 mph ENE9.7 kmh ENE 20.6 mph33.2 kmh 29.75 in1007.5 mb 0.00 in0.0 mm 0.00 in/hr0.0 mm/hr 0.00 in0.0 mm
01:31 AM 50.4°F10.2°C 50.4°F10.2°C 100% 9.8 mph ENE15.8 kmh ENE 20.6 mph33.2 kmh 29.75 in1007.5 mb 0.00 in0.0 mm 0.00 in/hr0.0 mm/hr 0.00 in0.0 mm
01:30 AM 50.4°F10.2°C 50.4°F10.2°C 100% 13.6 mph NE21.9 kmh NE 21.3 mph34.3 kmh 29.75 in1007.5 mb 0.00 in0.0 mm 0.00 in/hr0.0 mm/hr 0.00 in0.0 mm
01:29 AM 50.4°F10.2°C 50.4°F10.2°C 100% 9.2 mph NE14.8 kmh NE 21.3 mph34.3 kmh 29.75 in1007.5 mb 0.00 in0.0 mm 0.00 in/hr0.0 mm/hr 0.00 in0.0 mm
01:28 AM 50.5°F10.3°C 50.5°F10.3°C 100% 8.3 mph NE13.4 kmh NE 21.3 mph34.3 kmh 29.75 in1007.5 mb 0.00 in0.0 mm 0.00 in/hr0.0 mm/hr 0.00 in0.0 mm
01:27 AM 50.5°F10.3°C 50.5°F10.3°C 100% 7.6 mph NE12.2 kmh NE 21.3 mph34.3 kmh 29.75 in1007.5 mb 0.00 in0.0 mm 0.00 in/hr0.0 mm/hr 0.00 in0.0 mm
01:26 AM 50.5°F10.3°C 50.5°F10.3°C 100% 13.0 mph NE20.9 kmh NE 21.3 mph34.3 kmh 29.75 in1007.5 mb 0.00 in0.0 mm 0.00 in/hr0.0 mm/hr 0.00 in0.0 mm
01:25 AM 50.5°F10.3°C 50.5°F10.3°C 100% 10.7 mph ENE17.2 kmh ENE 22.8 mph36.7 kmh 29.75 in1007.5 mb 0.00 in0.0 mm 0.00 in/hr0.0 mm/hr 0.00 in0.0 mm
01:24 AM 50.7°F10.4°C 50.7°F10.4°C 100% 8.3 mph ENE13.4 kmh ENE 25.1 mph40.4 kmh 29.75 in1007.5 mb 0.00 in0.0 mm 0.00 in/hr0.0 mm/hr 0.00 in0.0 mm
01:23 AM 50.7°F10.4°C 50.7°F10.4°C 100% 9.8 mph ENE15.8 kmh ENE 25.1 mph40.4 kmh 29.75 in1007.5 mb 0.00 in0.0 mm 0.00 in/hr0.0 mm/hr 0.00 in0.0 mm
01:22 AM 50.9°F10.5°C 50.9°F10.5°C 100% 9.8 mph ENE15.8 kmh ENE 25.1 mph40.4 kmh 29.75 in1007.5 mb 0.00 in0.0 mm 0.00 in/hr0.0 mm/hr 0.00 in0.0 mm
01:21 AM 50.7°F10.4°C 50.7°F10.4°C 100% 12.1 mph ENE19.5 kmh ENE 25.1 mph40.4 kmh 29.75 in1007.5 mb 0.00 in0.0 mm 0.00 in/hr0.0 mm/hr 0.00 in0.0 mm
01:20 AM 50.9°F10.5°C 50.9°F10.5°C 100% 7.6 mph E12.2 kmh E 25.1 mph40.4 kmh 29.75 in1007.5 mb 0.00 in0.0 mm 0.00 in/hr0.0 mm/hr 0.00 in0.0 mm
01:19 AM 50.9°F10.5°C 50.4°F10.2°C 98% 6.9 mph E11.1 kmh E 25.1 mph40.4 kmh 29.76 in1007.8 mb 0.00 in0.0 mm 0.00 in/hr0.0 mm/hr 0.00 in0.0 mm
01:18 AM 50.9°F10.5°C 50.4°F10.2°C 98% 6.0 mph E9.7 kmh E 25.1 mph40.4 kmh 29.75 in1007.5 mb 0.00 in0.0 mm 0.00 in/hr0.0 mm/hr 0.00 in0.0 mm
01:17 AM 51.1°F10.6°C 50.3°F10.2°C 97% 12.1 mph E19.5 kmh E 25.1 mph40.4 kmh 29.75 in1007.5 mb 0.00 in0.0 mm 0.00 in/hr0.0 mm/hr 0.00 in0.0 mm
01:16 AM 51.3°F10.7°C 50.2°F10.1°C 96% 15.9 mph E25.6 kmh E 25.1 mph40.4 kmh 29.75 in1007.5 mb 0.00 in0.0 mm 0.00 in/hr0.0 mm/hr 0.00 in0.0 mm
01:15 AM 51.4°F10.8°C 50.3°F10.2°C 96% 9.8 mph E15.8 kmh E 25.1 mph40.4 kmh 29.75 in1007.5 mb 0.00 in0.0 mm 0.00 in/hr0.0 mm/hr 0.00 in0.0 mm
01:14 AM 51.3°F10.7°C 50.2°F10.1°C 96% 14.5 mph E23.3 kmh E 25.1 mph40.4 kmh 29.75 in1007.5 mb 0.00 in0.0 mm 0.00 in/hr0.0 mm/hr 0.00 in0.0 mm
01:13 AM 51.4°F10.8°C 50.3°F10.2°C 96% 10.7 mph ENE17.2 kmh ENE 19.7 mph31.7 kmh 29.75 in1007.5 mb 0.00 in0.0 mm 0.00 in/hr0.0 mm/hr 0.00 in0.0 mm
01:12 AM 51.4°F10.8°C 50.3°F10.2°C 96% 9.8 mph ENE15.8 kmh ENE 19.7 mph31.7 kmh 29.75 in1007.5 mb 0.00 in0.0 mm 0.00 in/hr0.0 mm/hr 0.00 in0.0 mm
01:11 AM 51.4°F10.8°C 50.3°F10.2°C 96% 10.7 mph ENE17.2 kmh ENE 19.7 mph31.7 kmh 29.75 in1007.5 mb 0.00 in0.0 mm 0.00 in/hr0.0 mm/hr 0.00 in0.0 mm
01:10 AM 51.4°F10.8°C 50.3°F10.2°C 96% 6.9 mph NE11.1 kmh NE 18.3 mph29.5 kmh 29.75 in1007.5 mb 0.00 in0.0 mm 0.00 in/hr0.0 mm/hr 0.00 in0.0 mm
01:09 AM 51.4°F10.8°C 50.3°F10.2°C 96% 6.9 mph NE11.1 kmh NE 18.3 mph29.5 kmh 29.76 in1007.8 mb 0.00 in0.0 mm 0.00 in/hr0.0 mm/hr 0.00 in0.0 mm
01:08 AM 51.4°F10.8°C 50.3°F10.2°C 96% 9.2 mph NE14.8 kmh NE 18.3 mph29.5 kmh 29.76 in1007.8 mb 0.00 in0.0 mm 0.00 in/hr0.0 mm/hr 0.00 in0.0 mm
01:07 AM 51.4°F10.8°C 50.3°F10.2°C 96% 9.2 mph NE14.8 kmh NE 18.3 mph29.5 kmh 29.76 in1007.8 mb 0.00 in0.0 mm 0.00 in/hr0.0 mm/hr 0.00 in0.0 mm
01:06 AM 51.4°F10.8°C 50.3°F10.2°C 96% 6.9 mph NE11.1 kmh NE 19.7 mph31.7 kmh 29.76 in1007.8 mb 0.00 in0.0 mm 0.00 in/hr0.0 mm/hr 0.00 in0.0 mm
01:05 AM 51.4°F10.8°C 50.3°F10.2°C 96% 8.3 mph ENE13.4 kmh ENE 19.7 mph31.7 kmh 29.76 in1007.8 mb 0.00 in0.0 mm 0.00 in/hr0.0 mm/hr 0.00 in0.0 mm
01:04 AM 51.4°F10.8°C 50.3°F10.2°C 96% 10.7 mph ENE17.2 kmh ENE 19.7 mph31.7 kmh 29.76 in1007.8 mb 0.00 in0.0 mm 0.00 in/hr0.0 mm/hr 0.00 in0.0 mm
01:03 AM 51.4°F10.8°C 50.3°F10.2°C 96% 10.7 mph ENE17.2 kmh ENE 19.7 mph31.7 kmh 29.76 in1007.8 mb 0.00 in0.0 mm 0.00 in/hr0.0 mm/hr 0.00 in0.0 mm
01:02 AM 51.4°F10.8°C 50.3°F10.2°C 96% 9.2 mph ENE14.8 kmh ENE 21.3 mph34.3 kmh 29.76 in1007.8 mb 0.00 in0.0 mm 0.00 in/hr0.0 mm/hr 0.00 in0.0 mm
01:01 AM 51.4°F10.8°C 50.3°F10.2°C 96% 13.6 mph ENE21.9 kmh ENE 21.3 mph34.3 kmh 29.76 in1007.8 mb 0.00 in0.0 mm 0.00 in/hr0.0 mm/hr 0.00 in0.0 mm
01:00 AM 51.4°F10.8°C 50.3°F10.2°C 96% 9.8 mph E15.8 kmh E 21.3 mph34.3 kmh 29.76 in1007.8 mb 0.00 in0.0 mm 0.00 in/hr0.0 mm/hr 0.00 in0.0 mm
12:59 AM 51.4°F10.8°C 50.3°F10.2°C 96% 8.3 mph ENE13.4 kmh ENE 21.3 mph34.3 kmh 29.76 in1007.8 mb 0.00 in0.0 mm 0.00 in/hr0.0 mm/hr 0.00 in0.0 mm
12:58 AM 51.4°F10.8°C 50.3°F10.2°C 96% 7.6 mph ENE12.2 kmh ENE 21.3 mph34.3 kmh 29.76 in1007.8 mb 0.00 in0.0 mm 0.00 in/hr0.0 mm/hr 0.00 in0.0 mm
12:57 AM 51.4°F10.8°C 50.3°F10.2°C 96% 11.4 mph ENE18.3 kmh ENE 21.3 mph34.3 kmh 29.76 in1007.8 mb 0.00 in0.0 mm 0.00 in/hr0.0 mm/hr 0.00 in0.0 mm
12:56 AM 51.4°F10.8°C 50.3°F10.2°C 96% 9.8 mph ENE15.8 kmh ENE 23.5 mph37.8 kmh 29.75 in1007.5 mb 0.00 in0.0 mm 0.00 in/hr0.0 mm/hr 0.00 in0.0 mm
12:55 AM 51.4°F10.8°C 50.3°F10.2°C 96% 9.2 mph ENE14.8 kmh ENE 23.5 mph37.8 kmh 29.75 in1007.5 mb 0.00 in0.0 mm 0.00 in/hr0.0 mm/hr 0.00 in0.0 mm
12:54 AM 51.4°F10.8°C 50.3°F10.2°C 96% 13.0 mph ENE20.9 kmh ENE 23.5 mph37.8 kmh 29.76 in1007.8 mb 0.00 in0.0 mm 0.00 in/hr0.0 mm/hr 0.00 in0.0 mm
12:53 AM 51.4°F10.8°C 50.3°F10.2°C 96% 13.6 mph NE21.9 kmh NE 23.5 mph37.8 kmh 29.75 in1007.5 mb 0.00 in0.0 mm 0.00 in/hr0.0 mm/hr 0.00 in0.0 mm
12:52 AM 51.4°F10.8°C 50.6°F10.3°C 97% 13.0 mph NE20.9 kmh NE 23.5 mph37.8 kmh 29.75 in1007.5 mb 0.00 in0.0 mm 0.00 in/hr0.0 mm/hr 0.00 in0.0 mm
12:51 AM 51.4°F10.8°C 50.3°F10.2°C 96% 7.6 mph NE12.2 kmh NE 23.5 mph37.8 kmh 29.75 in1007.5 mb 0.00 in0.0 mm 0.00 in/hr0.0 mm/hr 0.00 in0.0 mm
12:50 AM 51.4°F10.8°C 50.6°F10.3°C 97% 12.1 mph NE19.5 kmh NE 23.5 mph37.8 kmh 29.75 in1007.5 mb 0.00 in0.0 mm 0.00 in/hr0.0 mm/hr 0.00 in0.0 mm
12:49 AM 51.4°F10.8°C 50.6°F10.3°C 97% 10.7 mph ENE17.2 kmh ENE 23.5 mph37.8 kmh 29.76 in1007.8 mb 0.00 in0.0 mm 0.00 in/hr0.0 mm/hr 0.00 in0.0 mm
12:48 AM 51.4°F10.8°C 50.6°F10.3°C 97% 12.1 mph ENE19.5 kmh ENE 23.5 mph37.8 kmh 29.76 in1007.8 mb 0.00 in0.0 mm 0.00 in/hr0.0 mm/hr 0.00 in0.0 mm
12:47 AM 51.4°F10.8°C 50.6°F10.3°C 97% 15.2 mph ENE24.5 kmh ENE 23.5 mph37.8 kmh 29.76 in1007.8 mb 0.00 in0.0 mm 0.00 in/hr0.0 mm/hr 0.00 in0.0 mm
12:46 AM 51.4°F10.8°C 50.3°F10.2°C 96% 11.4 mph ENE18.3 kmh ENE 23.5 mph37.8 kmh 29.76 in1007.8 mb 0.00 in0.0 mm 0.00 in/hr0.0 mm/hr 0.00 in0.0 mm
12:45 AM 51.4°F10.8°C 50.3°F10.2°C 96% 9.2 mph ENE14.8 kmh ENE 22.1 mph35.6 kmh 29.76 in1007.8 mb 0.00 in0.0 mm 0.00 in/hr0.0 mm/hr 0.00 in0.0 mm
12:44 AM 51.4°F10.8°C 50.3°F10.2°C 96% 9.2 mph ENE14.8 kmh ENE 22.1 mph35.6 kmh 29.76 in1007.8 mb 0.00 in0.0 mm 0.00 in/hr0.0 mm/hr 0.00 in0.0 mm
12:43 AM 51.4°F10.8°C 50.3°F10.2°C 96% 8.3 mph ENE13.4 kmh ENE 22.1 mph35.6 kmh 29.76 in1007.8 mb 0.00 in0.0 mm 0.00 in/hr0.0 mm/hr 0.00 in0.0 mm
12:42 AM 51.4°F10.8°C 50.3°F10.2°C 96% 11.4 mph NE18.3 kmh NE 22.1 mph35.6 kmh 29.76 in1007.8 mb 0.00 in0.0 mm 0.00 in/hr0.0 mm/hr 0.00 in0.0 mm
12:41 AM 51.6°F10.9°C 50.2°F10.1°C 95% 12.1 mph NE19.5 kmh NE 22.1 mph35.6 kmh 29.76 in1007.8 mb 0.00 in0.0 mm 0.00 in/hr0.0 mm/hr 0.00 in0.0 mm
12:40 AM 51.6°F10.9°C 50.2°F10.1°C 95% 12.1 mph NE19.5 kmh NE 22.1 mph35.6 kmh 29.76 in1007.8 mb 0.00 in0.0 mm 0.00 in/hr0.0 mm/hr 0.00 in0.0 mm
12:39 AM 51.6°F10.9°C 50.2°F10.1°C 95% 10.7 mph NE17.2 kmh NE 22.1 mph35.6 kmh 29.76 in1007.8 mb 0.00 in0.0 mm 0.00 in/hr0.0 mm/hr 0.00 in0.0 mm
12:38 AM 51.8°F11.0°C 49.8°F9.9°C 93% 12.1 mph NE19.5 kmh NE 22.1 mph35.6 kmh 29.76 in1007.8 mb 0.00 in0.0 mm 0.00 in/hr0.0 mm/hr 0.00 in0.0 mm
12:37 AM 51.6°F10.9°C 50.2°F10.1°C 95% 12.1 mph NE19.5 kmh NE 22.1 mph35.6 kmh 29.76 in1007.8 mb 0.00 in0.0 mm 0.00 in/hr0.0 mm/hr 0.00 in0.0 mm
12:36 AM 51.6°F10.9°C 50.2°F10.1°C 95% 11.4 mph NE18.3 kmh NE 22.1 mph35.6 kmh 29.76 in1007.8 mb 0.00 in0.0 mm 0.00 in/hr0.0 mm/hr 0.00 in0.0 mm
12:35 AM 51.8°F11.0°C 49.8°F9.9°C 93% 9.2 mph NE14.8 kmh NE 22.1 mph35.6 kmh 29.76 in1007.8 mb 0.00 in0.0 mm 0.00 in/hr0.0 mm/hr 0.00 in0.0 mm
12:34 AM 51.8°F11.0°C 49.8°F9.9°C 93% 15.9 mph ENE25.6 kmh ENE 22.1 mph35.6 kmh 29.76 in1007.8 mb 0.00 in0.0 mm 0.00 in/hr0.0 mm/hr 0.00 in0.0 mm
12:33 AM 51.8°F11.0°C 49.8°F9.9°C 93% 15.2 mph NE24.5 kmh NE 22.1 mph35.6 kmh 29.76 in1007.8 mb 0.00 in0.0 mm 0.00 in/hr0.0 mm/hr 0.00 in0.0 mm
12:32 AM 51.6°F10.9°C 50.2°F10.1°C 95% 12.1 mph ENE19.5 kmh ENE 19.7 mph31.7 kmh 29.76 in1007.8 mb 0.00 in0.0 mm 0.00 in/hr0.0 mm/hr 0.00 in0.0 mm
12:31 AM 51.6°F10.9°C 50.2°F10.1°C 95% 11.4 mph ENE18.3 kmh ENE 19.7 mph31.7 kmh 29.76 in1007.8 mb 0.00 in0.0 mm 0.00 in/hr0.0 mm/hr 0.00 in0.0 mm
12:30 AM 51.8°F11.0°C 49.8°F9.9°C 93% 7.6 mph ENE12.2 kmh ENE 19.7 mph31.7 kmh 29.77 in1008.1 mb 0.00 in0.0 mm 0.00 in/hr0.0 mm/hr 0.00 in0.0 mm
12:29 AM 51.8°F11.0°C 49.8°F9.9°C 93% 13.0 mph E20.9 kmh E 19.7 mph31.7 kmh 29.76 in1007.8 mb 0.00 in0.0 mm 0.00 in/hr0.0 mm/hr 0.00 in0.0 mm
12:28 AM 51.6°F10.9°C 50.2°F10.1°C 95% 9.8 mph E15.8 kmh E 19.7 mph31.7 kmh 29.76 in1007.8 mb 0.00 in0.0 mm 0.00 in/hr0.0 mm/hr 0.00 in0.0 mm
12:27 AM 51.8°F11.0°C 49.8°F9.9°C 93% 10.7 mph E17.2 kmh E 19.7 mph31.7 kmh 29.76 in1007.8 mb 0.00 in0.0 mm 0.00 in/hr0.0 mm/hr 0.00 in0.0 mm
12:26 AM 51.6°F10.9°C 50.2°F10.1°C 95% 13.0 mph ESE20.9 kmh ESE 19.7 mph31.7 kmh 29.76 in1007.8 mb 0.00 in0.0 mm 0.00 in/hr0.0 mm/hr 0.00 in0.0 mm
12:25 AM 51.6°F10.9°C 50.2°F10.1°C 95% 11.4 mph SE18.3 kmh SE 18.3 mph29.5 kmh 29.76 in1007.8 mb 0.00 in0.0 mm 0.00 in/hr0.0 mm/hr 0.00 in0.0 mm
12:24 AM 51.6°F10.9°C 50.2°F10.1°C 95% 9.8 mph SE15.8 kmh SE 18.3 mph29.5 kmh 29.76 in1007.8 mb 0.00 in0.0 mm 0.00 in/hr0.0 mm/hr 0.00 in0.0 mm
12:23 AM 51.6°F10.9°C 50.2°F10.1°C 95% 6.9 mph SE11.1 kmh SE 25.1 mph40.4 kmh 29.77 in1008.1 mb 0.00 in0.0 mm 0.00 in/hr0.0 mm/hr 0.00 in0.0 mm
12:22 AM 51.8°F11.0°C 49.8°F9.9°C 93% 9.8 mph SE15.8 kmh SE 25.1 mph40.4 kmh 29.76 in1007.8 mb 0.00 in0.0 mm 0.00 in/hr0.0 mm/hr 0.00 in0.0 mm
12:21 AM 51.8°F11.0°C 49.8°F9.9°C 93% 9.2 mph SE14.8 kmh SE 25.1 mph40.4 kmh 29.77 in1008.1 mb 0.00 in0.0 mm 0.00 in/hr0.0 mm/hr 0.00 in0.0 mm
12:20 AM 51.8°F11.0°C 49.8°F9.9°C 93% 9.2 mph ESE14.8 kmh ESE 25.1 mph40.4 kmh 29.76 in1007.8 mb 0.00 in0.0 mm 0.00 in/hr0.0 mm/hr 0.00 in0.0 mm
12:19 AM 51.8°F11.0°C 49.8°F9.9°C 93% 9.2 mph E14.8 kmh E 25.1 mph40.4 kmh 29.77 in1008.1 mb 0.00 in0.0 mm 0.00 in/hr0.0 mm/hr 0.00 in0.0 mm
12:18 AM 51.8°F11.0°C 49.8°F9.9°C 93% 9.2 mph E14.8 kmh E 25.1 mph40.4 kmh 29.76 in1007.8 mb 0.00 in0.0 mm 0.00 in/hr0.0 mm/hr 0.00 in0.0 mm
12:17 AM 51.8°F11.0°C 49.8°F9.9°C 93% 9.2 mph ENE14.8 kmh ENE 25.1 mph40.4 kmh 29.77 in1008.1 mb 0.00 in0.0 mm 0.00 in/hr0.0 mm/hr 0.00 in0.0 mm
12:16 AM 51.8°F11.0°C 49.8°F9.9°C 93% 9.2 mph ENE14.8 kmh ENE 25.1 mph40.4 kmh 29.77 in1008.1 mb 0.00 in0.0 mm 0.00 in/hr0.0 mm/hr 0.00 in0.0 mm
12:15 AM 51.8°F11.0°C 49.8°F9.9°C 93% 10.7 mph NE17.2 kmh NE 25.1 mph40.4 kmh 29.77 in1008.1 mb 0.00 in0.0 mm 0.00 in/hr0.0 mm/hr 0.00 in0.0 mm
12:14 AM 51.8°F11.0°C 49.8°F9.9°C 93% 11.4 mph NE18.3 kmh NE 25.1 mph40.4 kmh 29.77 in1008.1 mb 0.00 in0.0 mm 0.00 in/hr0.0 mm/hr 0.00 in0.0 mm
12:13 AM 51.6°F10.9°C 50.2°F10.1°C 95% 14.5 mph ENE23.3 kmh ENE 21.3 mph34.3 kmh 29.77 in1008.1 mb 0.00 in0.0 mm 0.00 in/hr0.0 mm/hr 0.00 in0.0 mm
12:12 AM 51.8°F11.0°C 49.8°F9.9°C 93% 9.8 mph ENE15.8 kmh ENE 21.3 mph34.3 kmh 29.77 in1008.1 mb 0.00 in0.0 mm 0.00 in/hr0.0 mm/hr 0.00 in0.0 mm
12:11 AM 51.8°F11.0°C 49.8°F9.9°C 93% 11.4 mph ENE18.3 kmh ENE 21.3 mph34.3 kmh 29.77 in1008.1 mb 0.00 in0.0 mm 0.00 in/hr0.0 mm/hr 0.00 in0.0 mm
12:10 AM 51.8°F11.0°C 49.8°F9.9°C 93% 9.2 mph ENE14.8 kmh ENE 21.3 mph34.3 kmh 29.77 in1008.1 mb 0.00 in0.0 mm 0.00 in/hr0.0 mm/hr 0.00 in0.0 mm
12:09 AM 51.8°F11.0°C 49.8°F9.9°C 93% 13.0 mph ENE20.9 kmh ENE 21.3 mph34.3 kmh 29.77 in1008.1 mb 0.00 in0.0 mm 0.00 in/hr0.0 mm/hr 0.00 in0.0 mm
12:08 AM 51.8°F11.0°C 49.8°F9.9°C 93% 15.2 mph ENE24.5 kmh ENE 21.3 mph34.3 kmh 29.77 in1008.1 mb 0.00 in0.0 mm 0.00 in/hr0.0 mm/hr 0.00 in0.0 mm
12:07 AM 51.8°F11.0°C 49.8°F9.9°C 93% 10.7 mph ENE17.2 kmh ENE 19.7 mph31.7 kmh 29.77 in1008.1 mb 0.00 in0.0 mm 0.00 in/hr0.0 mm/hr 0.00 in0.0 mm
12:06 AM 51.8°F11.0°C 49.8°F9.9°C 93% 13.0 mph ENE20.9 kmh ENE 19.7 mph31.7 kmh 29.77 in1008.1 mb 0.00 in0.0 mm 0.00 in/hr0.0 mm/hr 0.00 in0.0 mm
12:05 AM 51.8°F11.0°C 49.8°F9.9°C 93% 10.7 mph ENE17.2 kmh ENE 20.6 mph33.2 kmh 29.77 in1008.1 mb 0.00 in0.0 mm 0.00 in/hr0.0 mm/hr 0.00 in0.0 mm
12:04 AM 51.8°F11.0°C 49.8°F9.9°C 93% 13.6 mph ENE21.9 kmh ENE 22.1 mph35.6 kmh 29.77 in1008.1 mb 0.00 in0.0 mm 0.00 in/hr0.0 mm/hr 0.00 in0.0 mm
12:03 AM 51.8°F11.0°C 49.8°F9.9°C 93% 10.7 mph ENE17.2 kmh ENE 22.1 mph35.6 kmh 29.77 in1008.1 mb 0.00 in0.0 mm 0.00 in/hr0.0 mm/hr 0.00 in0.0 mm
12:02 AM 51.8°F11.0°C 49.8°F9.9°C 93% 11.4 mph ENE18.3 kmh ENE 22.1 mph35.6 kmh 29.77 in1008.1 mb 0.00 in0.0 mm 0.00 in/hr0.0 mm/hr 0.00 in0.0 mm
12:01 AM 51.8°F11.0°C 49.8°F9.9°C 93% 13.0 mph ENE20.9 kmh ENE 22.1 mph35.6 kmh 29.77 in1008.1 mb 0.00 in0.0 mm 0.00 in/hr0.0 mm/hr 0.00 in0.0 mm
12:00 AM 51.8°F11.0°C 49.8°F9.9°C 93% 11.4 mph ENE18.3 kmh ENE 22.1 mph35.6 kmh 29.77 in1008.1 mb 0.00 in0.0 mm 0.00 in/hr0.0 mm/hr 0.12 in3.0 mm